Time;durP1;ratioP1;P1;durP2;ratioP2;P2;SDS_P1;SDS_P2;PMS_P1;PMS_P2;Temp;Humidity;BMP_temperature;BMP_pressure;BME280_temperature;BME280_humidity;BME280_pressure;Samples;Min_cycle;Max_cycle;Signal;HPM_P1;HPM_P2
2022/12/01 00:00:16;;;;;;;;;40.33;32.67;;;;;9.56;75.04;-19468.16;6240381;22;45680;-96
2022/12/01 00:02:49;;;;;;;;;42.00;35.33;;;;;8.00;74.97;-19426.91;6238340;22;45390;-95
2022/12/01 00:05:24;;;;;;;;;39.00;32.00;;;;;9.28;75.19;-19460.84;6241167;22;45205;-96
2022/12/01 00:08:15;;;;;;;;;43.33;33.00;;;;;10.09;75.24;-19482.19;6237251;22;45572;-96
2022/12/01 00:10:40;;;;;;;;;33.33;30.00;;;;;8.72;75.32;-19446.00;6240945;22;45432;-94
2022/12/01 00:13:12;;;;;;;;;40.33;34.00;;;;;8.69;75.30;-19445.03;6240146;22;45378;-95
2022/12/01 00:15:43;;;;;;;;;33.67;31.00;;;;;8.80;74.83;-19448.16;6239918;22;45318;-95
2022/12/01 00:18:09;;;;;;;;;38.33;32.00;;;;;9.27;74.50;-19460.59;6240550;22;45540;-95
2022/12/01 00:20:40;;;;;;;;;40.33;33.00;;;;;8.90;75.17;-19450.72;6240339;22;45941;-95
2022/12/01 00:23:15;;;;;;;;;42.33;34.00;;;;;8.11;74.54;-19429.91;6213461;22;45378;-94
2022/12/01 00:25:47;;;;;;;;;24.00;21.33;;;;;8.93;74.74;-19451.53;6242710;22;45570;-95
2022/12/01 00:28:14;;;;;;;;;33.67;32.00;;;;;9.17;74.13;-19457.88;6235370;22;45981;-95
2022/12/01 00:30:40;;;;;;;;;33.00;29.33;;;;;7.80;74.72;-19421.66;6240406;22;45352;-96
2022/12/01 00:36:18;;;;;;;;;38.00;31.00;;;;;8.63;74.57;-19443.69;6207186;22;45315;-94
2022/12/01 00:38:57;;;;;;;;;45.00;35.33;;;;;7.44;74.78;-19412.16;6183053;22;47818;-95
2022/12/01 00:41:26;;;;;;;;;38.33;33.00;;;;;9.15;74.92;-19457.19;6208753;22;45440;-94
2022/12/01 00:43:55;;;;;;;;;34.33;30.33;;;;;9.03;75.46;-19454.22;6239292;22;45257;-94
2022/12/01 00:46:21;;;;;;;;;34.67;30.33;;;;;8.56;74.94;-19441.78;6240062;22;45363;-94
2022/12/01 00:48:46;;;;;;;;;38.67;32.67;;;;;7.74;74.95;-19420.03;6212813;22;47029;-94
2022/12/01 00:51:12;;;;;;;;;40.33;33.33;;;;;8.52;74.77;-19440.72;6240453;22;45317;-95
2022/12/01 00:53:37;;;;;;;;;40.00;34.67;;;;;8.49;75.26;-19439.91;6240117;22;45336;-95
2022/12/01 00:56:09;;;;;;;;;39.00;32.67;;;;;8.42;75.29;-19438.16;6239741;22;45773;-95
2022/12/01 00:58:35;;;;;;;;;41.00;31.67;;;;;7.36;74.83;-19410.13;6239156;22;45619;-96
2022/12/01 01:01:01;;;;;;;;;35.33;32.33;;;;;8.06;75.21;-19428.41;6238417;22;45815;-95
2022/12/01 01:03:34;;;;;;;;;36.33;31.67;;;;;8.95;74.90;-19451.94;6212199;22;45580;-95
2022/12/01 01:06:17;;;;;;;;;42.00;34.00;;;;;8.87;74.79;-19450.03;6240360;22;45300;-96
2022/12/01 01:08:44;;;;;;;;;33.00;30.33;;;;;8.56;74.78;-19441.78;6239718;22;45920;-95
2022/12/01 01:11:26;;;;;;;;;;;;;;;;;;;;;
2022/12/01 01:13:51;;;;;;;;;38.33;33.67;;;;;8.34;74.81;-19435.97;6216042;22;69148;-94
2022/12/01 01:16:27;;;;;;;;;40.33;32.33;;;;;8.93;74.75;-19451.41;6213249;22;45426;-95
2022/12/01 01:18:53;;;;;;;;;40.00;34.33;;;;;8.04;74.75;-19428.13;6213049;22;47080;-95
2022/12/01 01:21:28;;;;;;;;;40.67;33.00;;;;;8.77;74.82;-19447.34;6239840;22;45429;-96
2022/12/01 01:23:54;;;;;;;;;41.00;33.67;;;;;8.09;74.89;-19429.22;6240334;22;45424;-95
2022/12/01 01:26:43;;;;;;;;;42.33;31.33;;;;;8.84;74.85;-19449.22;6239696;22;45318;-96
2022/12/01 01:29:29;;;;;;;;;35.67;32.00;;;;;9.45;75.23;-19465.31;6186234;22;45765;-94
2022/12/01 01:32:16;;;;;;;;;44.67;34.00;;;;;8.09;75.13;-19429.34;6217745;22;45317;-95
2022/12/01 01:34:51;;;;;;;;;42.67;34.67;;;;;9.44;75.02;-19464.91;6240088;22;45232;-95
2022/12/01 01:37:18;;;;;;;;;38.67;33.33;;;;;8.06;75.00;-19428.53;6212779;22;45366;-96
2022/12/01 01:39:44;;;;;;;;;40.33;34.33;;;;;7.10;75.14;-19403.22;6238783;22;46480;-96
2022/12/01 01:42:23;;;;;;;;;38.67;31.67;;;;;9.37;75.70;-19463.16;6238734;22;45777;-95
2022/12/01 01:44:59;;;;;;;;;38.67;33.00;;;;;8.93;75.46;-19451.41;6238787;22;45524;-96
2022/12/01 01:47:39;;;;;;;;;35.00;31.00;;;;;8.48;75.32;-19439.50;6240219;22;45384;-95
2022/12/01 01:50:26;;;;;;;;;36.33;32.33;;;;;7.28;75.35;-19407.97;6239228;22;47615;-95
2022/12/01 01:53:01;;;;;;;;;38.67;31.33;;;;;7.88;75.42;-19423.81;6218190;22;45938;-96
2022/12/01 01:55:33;;;;;;;;;39.00;35.00;;;;;7.42;75.22;-19411.50;6239673;22;45393;-95
2022/12/01 01:58:00;;;;;;;;;37.00;28.33;;;;;7.71;75.35;-19419.34;6239692;22;45424;-95
2022/12/01 02:00:26;;;;;;;;;39.67;33.00;;;;;7.19;74.83;-19405.53;6238373;22;45453;-95
2022/12/01 02:02:52;;;;;;;;;35.33;28.33;;;;;8.22;75.36;-19432.72;6238715;22;45717;-96
2022/12/01 02:05:30;;;;;;;;;32.67;28.00;;;;;7.53;74.48;-19414.47;6213755;22;45372;-95
2022/12/01 02:07:58;;;;;;;;;30.00;30.00;;;;;7.63;74.13;-19417.19;6239336;22;45452;-95
2022/12/01 02:10:42;;;;;;;;;32.00;28.33;;;;;7.68;74.03;-19418.38;6238694;22;45298;-95
2022/12/01 02:13:50;;;;;;;;;38.33;30.67;;;;;8.66;74.09;-19444.50;6239770;22;45254;-94
2022/12/01 02:16:45;;;;;;;;;29.33;27.67;;;;;8.68;73.57;-19444.91;6241747;22;45426;-95
2022/12/01 02:19:57;;;;;;;;;33.67;29.33;;;;;9.83;73.75;-19475.31;6242281;22;45498;-96
2022/12/01 02:23:00;;;;;;;;;33.00;30.00;;;;;9.83;73.69;-19475.31;6118482;23;46439;-96
2022/12/01 02:26:07;;;;;;;;;33.67;28.00;;;;;9.86;73.46;-19475.97;6117785;23;45322;-93
2022/12/01 02:28:38;;;;;;;;;37.00;33.00;;;;;9.88;73.39;-19476.50;6117862;23;45286;-94
2022/12/01 02:31:31;;;;;;;;;33.33;28.00;;;;;8.55;73.35;-19441.41;6118370;23;45466;-95
2022/12/01 02:34:42;;;;;;;;;32.33;30.67;;;;;9.91;73.35;-19477.47;6092554;23;48450;-95
2022/12/01 02:37:51;;;;;;;;;24.67;24.67;;;;;9.95;73.55;-19478.41;6092790;23;45339;-94
2022/12/01 02:40:33;;;;;;;;;30.00;29.00;;;;;9.97;73.24;-19478.94;6117589;23;45446;-94
2022/12/01 02:43:21;;;;;;;;;34.67;31.67;;;;;7.64;73.10;-19417.44;6118714;23;45483;-95
2022/12/01 02:46:14;;;;;;;;;29.67;27.33;;;;;9.98;73.01;-19479.09;6180816;23;46891;-94
2022/12/01 02:48:53;;;;;;;;;35.33;29.00;;;;;9.25;72.86;-19460.03;6182007;23;45494;-94
2022/12/01 02:51:43;;;;;;;;;30.33;30.33;;;;;9.98;73.06;-19479.09;6183360;23;45298;-93
2022/12/01 02:54:09;;;;;;;;;33.33;30.33;;;;;8.86;72.88;-19449.78;6181480;23;45713;-94
2022/12/01 02:57:04;;;;;;;;;35.33;28.67;;;;;8.62;72.63;-19443.41;6182152;23;48128;-94
2022/12/01 02:59:29;;;;;;;;;31.67;24.33;;;;;8.62;72.63;-19443.28;6112140;23;45482;-93
2022/12/01 03:01:55;;;;;;;;;38.67;27.67;;;;;9.93;72.80;-19478.00;6147815;23;45402;-95
2022/12/01 03:04:38;;;;;;;;;33.33;28.67;;;;;9.91;73.05;-19477.31;6148273;23;45480;-93
2022/12/01 03:07:45;;;;;;;;;36.33;31.00;;;;;8.87;72.49;-19450.03;6147515;23;48043;-93
2022/12/01 03:10:20;;;;;;;;;41.00;30.33;;;;;9.81;73.11;-19474.63;6121291;23;45554;-93
2022/12/01 03:13:17;;;;;;;;;33.00;27.33;;;;;9.73;72.95;-19472.72;6148135;23;45391;-94
2022/12/01 03:16:13;;;;;;;;;44.00;33.00;;;;;9.02;73.37;-19453.81;6148397;23;45489;-93
2022/12/01 03:19:16;;;;;;;;;33.00;24.33;;;;;9.63;73.25;-19469.91;6122720;23;48075;-95
2022/12/01 03:22:01;;;;;;;;;44.00;35.00;;;;;8.88;72.93;-19450.19;6148919;22;45420;-94
2022/12/01 03:24:33;;;;;;;;;35.33;31.33;;;;;8.48;73.31;-19439.63;6210288;22;45205;-94
2022/12/01 03:27:02;;;;;;;;;36.00;32.00;;;;;8.15;73.04;-19430.97;6210358;22;45212;-94
2022/12/01 03:30:01;;;;;;;;;41.67;34.33;;;;;7.37;73.40;-19410.41;6208504;22;45469;-95
2022/12/01 03:33:00;;;;;;;;;25.00;23.67;;;;;8.06;73.40;-19428.53;6210877;22;45286;-93
2022/12/01 03:35:47;;;;;;;;;38.00;33.67;;;;;9.28;73.76;-19460.84;6252616;22;45445;-94
2022/12/01 03:38:21;;;;;;;;;35.33;30.33;;;;;7.58;73.80;-19415.81;6207865;22;45334;-94
2022/12/01 03:40:49;;;;;;;;;40.67;31.33;;;;;8.48;74.23;-19439.63;6208473;22;46982;-94
2022/12/01 03:43:20;;;;;;;;;39.67;32.33;;;;;7.21;73.81;-19406.06;6209132;22;45299;-93
2022/12/01 03:46:04;;;;;;;;;34.67;28.33;;;;;9.39;74.27;-19463.69;6209517;22;45330;-93
2022/12/01 03:48:32;;;;;;;;;24.00;24.00;;;;;8.44;73.81;-19438.56;6183963;22;45441;-93
2022/12/01 03:51:39;;;;;;;;;22.00;14.33;;;;;9.37;74.19;-19463.00;6210600;22;45338;-94
2022/12/01 03:54:26;;;;;;;;;31.67;29.00;;;;;8.50;74.33;-19440.03;6091089;23;45737;-95
2022/12/01 03:57:15;;;;;;;;;36.67;31.00;;;;;7.97;73.92;-19426.25;6117450;23;45550;-93
2022/12/01 03:59:42;;;;;;;;;40.00;33.33;;;;;7.32;73.94;-19408.91;6092723;23;45443;-93
2022/12/01 04:02:11;;;;;;;;;31.67;29.00;;;;;8.50;74.29;-19440.03;6092696;23;47880;-93
2022/12/01 04:04:37;;;;;;;;;35.33;31.67;;;;;7.86;74.05;-19423.13;6117542;23;45315;-93
2022/12/01 04:07:05;;;;;;;;;31.00;26.00;;;;;8.39;74.03;-19437.34;6117162;22;45563;-93
2022/12/01 04:09:33;;;;;;;;;39.00;32.00;;;;;8.75;74.34;-19446.78;6118086;23;45767;-94
2022/12/01 04:14:55;;;;;;;;;32.00;30.33;;;;;7.85;74.23;-19422.88;6117738;23;45267;-94
2022/12/01 04:17:25;;;;;;;;;34.67;32.33;;;;;6.78;74.46;-19394.69;6147013;23;45465;-93
2022/12/01 04:19:55;;;;;;;;;34.00;32.33;;;;;7.79;74.32;-19421.38;6147388;23;45608;-93
2022/12/01 04:22:30;;;;;;;;;32.33;31.33;;;;;7.05;74.39;-19401.88;6122263;23;46934;-93
2022/12/01 04:24:56;;;;;;;;;41.00;33.33;;;;;8.45;74.12;-19438.81;6146999;23;45307;-94
2022/12/01 04:27:22;;;;;;;;;40.00;34.00;;;;;8.40;74.59;-19437.47;6147028;23;45257;-94
2022/12/01 04:29:54;;;;;;;;;35.33;32.67;;;;;8.65;74.71;-19444.09;6142468;22;45279;-94
2022/12/01 04:32:19;;;;;;;;;42.33;32.33;;;;;8.00;74.85;-19426.91;6213040;22;47090;-96
2022/12/01 04:34:45;;;;;;;;;37.50;31.00;;;;;8.24;74.62;-19433.41;6238325;22;45250;-93
2022/12/01 04:37:11;;;;;;;;;37.00;30.67;;;;;7.52;74.23;-19414.19;6239198;22;45341;-93
2022/12/01 04:39:43;;;;;;;;;32.00;27.00;;;;;8.13;74.61;-19430.44;6238514;22;45307;-92
2022/12/01 04:42:10;;;;;;;;;35.00;31.00;;;;;6.89;74.57;-19397.69;6238615;22;45486;-92
2022/12/01 04:44:35;;;;;;;;;37.67;29.67;;;;;7.73;74.52;-19419.88;6238253;22;45529;-93
2022/12/01 04:47:03;;;;;;;;;39.67;33.00;;;;;7.14;74.71;-19404.31;6238261;22;45297;-92
2022/12/01 04:52:58;;;;;;;;;40.00;33.00;;;;;8.24;74.93;-19433.41;6242819;22;45663;-94
2022/12/01 04:55:28;;;;;;;;;34.33;30.00;;;;;8.10;75.11;-19429.47;6242484;22;45277;-94
2022/12/01 04:57:54;;;;;;;;;35.67;33.33;;;;;7.53;74.73;-19414.47;6215380;22;46007;-95
2022/12/01 05:00:22;;;;;;;;;35.67;28.33;;;;;7.45;74.99;-19412.44;6242405;22;45424;-93
2022/12/01 05:03:06;;;;;;;;;36.67;32.67;;;;;8.03;74.67;-19427.72;6216836;22;47118;-94
2022/12/01 05:05:31;;;;;;;;;32.67;24.67;;;;;8.08;74.96;-19429.09;6242655;22;45343;-93
2022/12/01 05:08:04;;;;;;;;;47.33;33.00;;;;;8.86;74.64;-19449.63;6217932;22;45388;-94
2022/12/01 05:14:17;;;;;;;;;40.33;32.00;;;;;6.69;74.59;-19392.25;6150482;23;45541;-94
2022/12/01 05:16:50;;;;;;;;;32.00;29.33;;;;;7.43;74.52;-19411.75;6151696;23;45535;-94
2022/12/01 05:22:11;;;;;;;;;36.33;33.00;;;;;6.43;74.57;-19385.50;6143220;23;45299;-93
2022/12/01 05:24:37;;;;;;;;;40.67;33.00;;;;;7.26;74.70;-19407.44;6115563;23;46175;-95
2022/12/01 05:27:02;;;;;;;;;33.33;28.33;;;;;8.00;74.78;-19427.06;6116425;23;45462;-94
2022/12/01 05:29:28;;;;;;;;;33.33;32.00;;;;;7.18;74.55;-19405.41;6092358;23;45446;-95
2022/12/01 05:32:01;;;;;;;;;37.67;33.00;;;;;7.40;75.00;-19411.22;6117671;23;45369;-94
2022/12/01 05:34:26;;;;;;;;;31.67;31.33;;;;;7.65;74.87;-19417.72;6115759;23;45910;-93
2022/12/01 05:36:52;;;;;;;;;33.33;29.33;;;;;7.58;74.60;-19415.97;6115403;22;45538;-93
2022/12/01 05:39:23;;;;;;;;;33.33;31.00;;;;;7.85;75.00;-19423.00;6116236;23;45492;-94
2022/12/01 05:41:48;;;;;;;;;38.67;33.67;;;;;8.84;74.82;-19449.09;6181277;22;45344;-93
2022/12/01 05:44:14;;;;;;;;;41.33;33.00;;;;;8.01;74.84;-19427.31;6304917;22;45562;-93
2022/12/01 05:46:49;;;;;;;;;31.00;29.67;;;;;8.35;74.37;-19436.25;6303713;22;45406;-93
2022/12/01 05:49:28;;;;;;;;;36.67;32.00;;;;;6.90;74.38;-19397.94;6305608;22;45463;-92
2022/12/01 05:52:03;;;;;;;;;40.33;32.33;;;;;8.92;74.01;-19451.13;6306536;22;45265;-92
2022/12/01 05:54:32;;;;;;;;;29.33;26.33;;;;;8.18;73.94;-19431.78;6305597;22;46248;-93
2022/12/01 05:56:58;;;;;;;;;30.67;25.67;;;;;7.58;73.68;-19415.81;6331398;22;45591;-94
2022/12/01 05:59:23;;;;;;;;;35.00;29.33;;;;;7.51;73.68;-19414.06;6310318;22;45258;-92
2022/12/01 06:04:21;;;;;;;;;35.00;29.67;;;;;6.47;73.86;-19386.44;6243121;22;74361;-96
2022/12/01 06:07:05;;;;;;;;;34.67;30.33;;;;;8.92;73.48;-19451.25;6222416;22;45461;-96
2022/12/01 06:09:30;;;;;;;;;32.67;30.00;;;;;7.84;73.80;-19422.72;6214719;22;45605;-93
2022/12/01 06:11:55;;;;;;;;;36.33;30.00;;;;;8.17;73.35;-19431.38;6215792;22;45293;-95
2022/12/01 06:14:21;;;;;;;;;33.67;29.33;;;;;7.61;73.34;-19416.63;6244514;22;45415;-95
2022/12/01 06:19:21;;;;;;;;;31.33;27.00;;;;;7.89;73.37;-19423.94;6235554;22;46057;-93
2022/12/01 06:21:47;;;;;;;;;35.00;28.33;;;;;8.29;73.00;-19434.50;6214433;22;45817;-92
2022/12/01 06:24:12;;;;;;;;;33.33;32.67;;;;;9.02;72.99;-19453.97;6239819;22;47091;-92
2022/12/01 06:26:38;;;;;;;;;38.33;32.00;;;;;7.98;72.93;-19426.38;6348218;22;45531;-92
2022/12/01 06:29:03;;;;;;;;;36.67;30.33;;;;;8.33;73.08;-19435.72;6240452;22;45461;-93
2022/12/01 06:31:29;;;;;;;;;29.33;29.00;;;;;7.26;72.67;-19407.28;6241486;22;45223;-91
2022/12/01 06:33:54;;;;;;;;;39.00;30.33;;;;;8.49;72.84;-19439.91;6214456;22;47525;-91
2022/12/01 06:39:10;;;;;;;;;33.33;25.00;;;;;6.61;72.37;-19390.22;6242967;22;45262;-91
2022/12/01 06:41:44;;;;;;;;;39.00;27.00;;;;;8.47;72.64;-19439.38;6239003;22;45501;-88
2022/12/01 06:44:15;;;;;;;;;31.33;22.33;;;;;8.75;72.58;-19446.66;6240705;22;46144;-91
2022/12/01 06:49:44;;;;;;;;;42.33;36.00;;;;;8.24;72.31;-19433.41;6334606;22;46351;-91
2022/12/01 06:52:10;;;;;;;;;40.67;32.67;;;;;7.05;72.27;-19401.75;6338337;22;45228;-93
2022/12/01 06:54:36;;;;;;;;;28.67;26.33;;;;;8.08;71.77;-19428.94;6333960;22;46591;-91
2022/12/01 06:57:02;;;;;;;;;31.33;27.00;;;;;8.48;72.63;-19439.50;6336541;22;45394;-89
2022/12/01 06:59:31;;;;;;;;;41.67;32.33;;;;;7.94;72.12;-19425.44;6333808;22;45756;-88
2022/12/01 07:01:59;;;;;;;;;36.67;29.67;;;;;7.29;72.02;-19408.25;6307218;22;45577;-88
2022/12/01 07:07:21;;;;;;;;;34.00;32.67;;;;;7.66;72.25;-19417.84;6239419;22;45404;-92
2022/12/01 07:20:09;;;;;;;;;34.33;30.67;;;;;9.06;72.06;-19455.03;6236297;22;45529;-93
2022/12/01 07:22:58;;;;;;;;;;;;;;;;;;;;;
2022/12/01 07:25:34;;;;;;;;;35.33;29.33;;;;;8.19;72.00;-19431.91;6192541;22;62781;-92
2022/12/01 07:28:00;;;;;;;;;34.00;28.00;;;;;9.10;72.13;-19456.00;6187831;22;46723;-92
2022/12/01 07:30:25;;;;;;;;;25.33;22.33;;;;;7.74;71.76;-19420.16;6240057;22;45222;-93
2022/12/01 07:33:00;;;;;;;;;36.33;33.00;;;;;7.73;72.25;-19419.75;6241016;22;45646;-91
2022/12/01 07:35:25;;;;;;;;;33.33;30.00;;;;;7.73;71.73;-19419.75;6241250;22;45345;-93
2022/12/01 07:37:55;;;;;;;;;38.67;33.33;;;;;8.44;72.06;-19438.56;6211566;22;47766;-88
2022/12/01 07:40:20;;;;;;;;;41.67;32.00;;;;;6.78;71.48;-19394.56;6239192;22;45459;-88
2022/12/01 07:42:46;;;;;;;;;30.00;26.33;;;;;7.78;71.85;-19421.22;6238887;22;45390;-88
2022/12/01 07:45:11;;;;;;;;;39.67;30.00;;;;;6.93;71.39;-19398.63;6237110;22;45419;-89
2022/12/01 07:50:34;;;;;;;;;33.00;29.33;;;;;7.77;71.83;-19420.81;6233810;22;45545;-88
2022/12/01 07:53:00;;;;;;;;;34.67;30.00;;;;;9.20;71.99;-19458.69;6210962;22;45355;-87
2022/12/01 07:55:34;;;;;;;;;43.33;33.00;;;;;7.78;71.88;-19421.09;6239227;22;45281;-87
2022/12/01 07:58:00;;;;;;;;;34.67;33.00;;;;;8.39;71.61;-19437.34;6238787;22;46555;-87
2022/12/01 08:00:26;;;;;;;;;20.33;17.00;;;;;7.85;71.39;-19422.88;6238876;22;45298;-88
2022/12/01 08:02:51;;;;;;;;;29.33;28.00;;;;;8.18;71.63;-19431.66;6238648;22;45403;-88
2022/12/01 08:05:16;;;;;;;;;24.00;22.00;;;;;8.52;71.63;-19440.72;6238880;22;45522;-88
2022/12/01 08:07:41;;;;;;;;;35.33;29.00;;;;;7.89;71.63;-19424.06;6237551;22;46959;-88
2022/12/01 08:10:10;;;;;;;;;29.00;27.33;;;;;8.48;71.14;-19439.50;6238164;22;45263;-87
2022/12/01 08:12:36;;;;;;;;;35.00;29.00;;;;;8.31;71.59;-19435.16;6236611;22;45353;-88
2022/12/01 08:15:02;;;;;;;;;31.00;27.00;;;;;8.57;71.96;-19441.94;6346312;22;45334;-88
2022/12/01 08:17:27;;;;;;;;;30.67;23.67;;;;;8.83;71.89;-19448.97;6210857;22;48030;-87
2022/12/01 08:19:53;;;;;;;;;23.33;22.00;;;;;7.48;71.19;-19413.25;6236610;22;45452;-89
2022/12/01 08:22:18;;;;;;;;;31.67;27.33;;;;;8.65;71.20;-19444.09;6236444;22;45272;-89
2022/12/01 08:24:44;;;;;;;;;33.67;26.67;;;;;8.33;71.24;-19435.56;6346527;22;45240;-88
2022/12/01 08:27:09;;;;;;;;;33.00;28.67;;;;;8.83;71.74;-19448.81;6237687;22;45870;-88
2022/12/01 08:29:35;;;;;;;;;28.50;23.50;;;;;9.22;71.37;-19459.09;6211253;22;45275;-88
2022/12/01 08:32:00;;;;;;;;;28.67;26.00;;;;;8.90;71.10;-19450.72;6210670;22;45246;-88
2022/12/01 08:34:26;;;;;;;;;32.33;25.33;;;;;9.03;71.39;-19454.09;6236481;22;45362;-88
2022/12/01 08:36:51;;;;;;;;;28.00;26.00;;;;;8.48;71.01;-19439.63;6236320;22;47072;-89
2022/12/01 08:39:16;;;;;;;;;33.33;25.00;;;;;8.30;71.30;-19434.91;6238561;22;45241;-88
2022/12/01 08:41:42;;;;;;;;;27.67;24.33;;;;;7.82;71.40;-19422.19;6235720;22;45313;-89
2022/12/01 08:44:08;;;;;;;;;27.33;25.67;;;;;8.58;71.19;-19442.19;6236591;22;45278;-88
2022/12/01 08:46:35;;;;;;;;;31.00;26.33;;;;;8.19;71.07;-19432.06;6234060;22;45404;-88
2022/12/01 08:49:01;;;;;;;;;30.33;23.33;;;;;9.57;71.05;-19468.28;6210833;22;45773;-89
2022/12/01 08:51:27;;;;;;;;;28.50;22.00;;;;;8.29;71.09;-19434.63;6236357;22;45390;-88
2022/12/01 08:54:02;;;;;;;;;31.33;28.33;;;;;7.03;70.92;-19401.34;6238566;22;45285;-89
2022/12/01 08:56:35;;;;;;;;;29.33;24.67;;;;;9.22;71.32;-19459.22;6237486;22;46124;-88
2022/12/01 08:59:00;;;;;;;;;28.00;26.00;;;;;8.78;70.94;-19447.47;6238120;22;45420;-89
2022/12/01 09:01:27;;;;;;;;;30.67;26.33;;;;;8.16;70.91;-19431.09;6236865;22;45681;-87
2022/12/01 09:04:04;;;;;;;;;31.67;26.00;;;;;8.62;70.79;-19443.41;6237629;22;45493;-86
2022/12/01 09:06:42;;;;;;;;;34.00;28.00;;;;;8.35;71.20;-19436.25;6234381;22;47375;-87
2022/12/01 09:09:09;;;;;;;;;33.67;29.00;;;;;8.70;70.96;-19445.44;6236924;22;45479;-86
2022/12/01 09:11:38;;;;;;;;;31.00;28.67;;;;;9.72;70.89;-19472.34;6235163;22;45465;-87
2022/12/01 09:14:06;;;;;;;;;30.00;26.67;;;;;8.43;70.53;-19438.41;6237511;22;45389;-87
2022/12/01 09:16:32;;;;;;;;;30.67;28.00;;;;;8.73;70.58;-19446.25;6236563;22;45798;-87
2022/12/01 09:19:10;;;;;;;;;23.67;22.00;;;;;9.75;70.71;-19473.00;6237272;22;45691;-89
2022/12/01 09:21:42;;;;;;;;;30.33;28.00;;;;;7.80;70.28;-19421.78;6209834;22;45696;-87
2022/12/01 09:24:15;;;;;;;;;30.00;28.00;;;;;8.58;70.49;-19442.34;6236617;22;45448;-88
2022/12/01 09:29:16;;;;;;;;;26.00;23.00;;;;;9.75;70.91;-19473.13;6233586;22;45390;-87
2022/12/01 09:31:42;;;;;;;;;28.33;23.33;;;;;7.61;70.71;-19416.78;6236392;22;45271;-88
2022/12/01 09:34:12;;;;;;;;;27.00;24.67;;;;;9.05;70.85;-19454.63;6237706;22;45490;-87
2022/12/01 09:36:38;;;;;;;;;37.00;24.00;;;;;7.95;70.25;-19425.56;6210221;22;48720;-88
2022/12/01 09:39:17;;;;;;;;;;;;;;;;;;;;;
2022/12/01 09:42:04;;;;;;;;;20.33;20.33;;;;;7.69;70.16;-19418.66;6156491;22;67711;-88
2022/12/01 09:45:27;;;;;;;;;31.00;23.67;;;;;9.77;70.68;-19473.69;6238049;22;45444;-89
2022/12/01 09:48:12;;;;;;;;;19.67;18.67;;;;;8.57;70.20;-19442.06;6238862;22;46558;-88
2022/12/01 09:54:41;;;;;;;;;;;;;;;;;;;;;
2022/12/01 09:57:35;;;;;;;;;30.67;26.33;;;;;9.05;69.93;-19454.78;6207038;22;62173;-88
2022/12/01 10:03:47;;;;;;;;;21.33;19.67;;;;;9.49;70.13;-19466.25;6233798;22;45458;-88
2022/12/01 10:06:44;;;;;;;;;24.33;22.33;;;;;9.92;70.10;-19477.59;6238424;22;45330;-93
2022/12/01 10:12:50;;;;;;;;;25.00;21.67;;;;;8.80;69.99;-19448.16;6239401;22;45777;-92
2022/12/01 10:15:24;;;;;;;;;22.00;20.67;;;;;10.07;70.00;-19481.66;6231308;22;45195;-92
2022/12/01 10:23:54;;;;;;;;;22.00;18.33;;;;;9.59;69.29;-19468.97;6178009;23;45837;-88
2022/12/01 10:26:25;;;;;;;;;21.33;20.00;;;;;10.39;68.86;-19489.88;6175943;22;45547;-87
2022/12/01 10:29:21;;;;;;;;;21.67;20.67;;;;;10.48;68.98;-19492.31;6175403;23;45531;-87
2022/12/01 10:34:40;;;;;;;;;24.00;21.00;;;;;9.66;68.35;-19470.84;6180402;22;46077;-93
2022/12/01 10:40:17;;;;;;;;;25.67;22.00;;;;;10.64;68.13;-19496.63;6233885;22;44925;-92
2022/12/01 10:42:45;;;;;;;;;22.67;21.33;;;;;10.14;67.99;-19483.41;6213275;22;45554;-87
2022/12/01 10:45:25;;;;;;;;;20.33;20.00;;;;;10.22;68.71;-19485.44;6237853;22;47224;-85
2022/12/01 10:48:41;;;;;;;;;24.33;19.67;;;;;10.60;68.63;-19495.53;6238916;22;45341;-88
2022/12/01 10:51:22;;;;;;;;;24.67;20.67;;;;;8.74;68.53;-19446.53;6237706;22;45428;-82
2022/12/01 10:54:09;;;;;;;;;25.67;22.00;;;;;10.61;68.64;-19495.81;6240876;22;45341;-86
2022/12/01 10:56:39;;;;;;;;;23.67;22.67;;;;;9.89;68.59;-19476.78;6237474;22;46377;-86
2022/12/01 10:59:26;;;;;;;;;21.33;20.00;;;;;10.24;68.73;-19485.97;6237268;22;45356;-84
2022/12/01 11:01:59;;;;;;;;;23.67;21.33;;;;;10.54;69.00;-19493.94;6239569;22;45741;-87
2022/12/01 11:04:55;;;;;;;;;22.00;21.00;;;;;10.66;68.61;-19497.03;6207918;22;47031;-85
2022/12/01 11:07:42;;;;;;;;;24.33;21.67;;;;;9.57;68.57;-19468.41;6210277;22;48295;-87
2022/12/01 11:24:10;;;;;;;;;23.67;21.33;;;;;10.66;68.16;-19497.03;6243850;22;45803;-92
2022/12/01 11:36:06;;;;;;;;;21.67;18.33;;;;;9.66;66.96;-19470.72;6233781;22;45429;-86
2022/12/01 11:45:26;;;;;;;;;21.00;16.33;;;;;10.23;67.00;-19485.69;6233414;22;45451;-85
2022/12/01 11:51:37;;;;;;;;;24.00;21.00;;;;;8.54;66.94;-19441.25;6159639;22;45618;-87
2022/12/01 11:54:32;;;;;;;;;23.00;22.33;;;;;10.62;67.01;-19496.09;6206857;22;45550;-90
2022/12/01 12:20:40;;;;;;;;;29.00;24.00;;;;;10.85;67.56;-19502.03;6281187;22;45532;-89
2022/12/01 12:23:43;;;;;;;;;23.33;21.00;;;;;10.88;67.60;-19502.84;6239052;22;45422;-88
2022/12/01 12:29:28;;;;;;;;;22.00;22.00;;;;;10.55;66.85;-19494.19;6236527;22;45373;-89
2022/12/01 12:34:22;;;;;;;;;27.00;22.00;;;;;11.29;66.68;-19513.63;6236800;22;67924;-87
2022/12/01 12:36:59;;;;;;;;;27.67;24.00;;;;;11.26;66.52;-19512.94;6239079;22;45681;-89
2022/12/01 12:40:05;;;;;;;;;31.00;21.67;;;;;11.39;66.50;-19516.31;6236961;22;47268;-91
2022/12/01 12:43:08;;;;;;;;;24.00;23.33;;;;;11.43;66.23;-19517.25;6234961;22;45421;-92
2022/12/01 12:48:57;;;;;;;;;;;;;;;;;;;;;
2022/12/01 12:51:49;;;;;;;;;26.33;24.33;;;;;9.26;66.15;-19460.19;6255475;22;73831;-90
2022/12/01 12:56:46;;;;;;;;;27.67;25.00;;;;;10.95;66.71;-19504.84;6235463;22;67857;-85
2022/12/01 12:59:50;;;;;;;;;27.67;22.67;;;;;10.93;66.96;-19504.31;6239370;22;45255;-84
2022/12/01 13:02:25;;;;;;;;;23.67;23.00;;;;;10.34;66.59;-19488.81;6211791;22;47348;-85
2022/12/01 13:05:11;;;;;;;;;23.00;21.33;;;;;11.12;66.78;-19509.16;6236991;22;45516;-85
2022/12/01 13:07:55;;;;;;;;;18.00;16.33;;;;;10.45;67.00;-19491.63;6236691;22;45531;-85
2022/12/01 13:10:42;;;;;;;;;27.67;23.00;;;;;11.05;66.56;-19507.28;6236857;22;45405;-85
2022/12/01 13:13:38;;;;;;;;;21.33;19.67;;;;;11.04;66.81;-19507.16;6208878;22;46311;-86
2022/12/01 13:22:55;;;;;;;;;22.33;21.67;;;;;9.13;66.12;-19456.81;6237417;22;45701;-92
2022/12/01 13:43:04;;;;;;;;;24.33;22.33;;;;;9.46;66.30;-19465.44;6233100;22;45624;-91
2022/12/01 13:45:49;;;;;;;;;22.67;20.00;;;;;10.69;66.66;-19497.97;6236757;22;45445;-89
2022/12/01 13:48:39;;;;;;;;;21.67;20.67;;;;;10.66;66.68;-19497.03;6236462;22;47387;-90
2022/12/01 13:51:04;;;;;;;;;20.00;17.67;;;;;9.42;66.44;-19464.50;6239202;22;45425;-93
2022/12/01 13:53:31;;;;;;;;;19.67;19.67;;;;;10.63;66.58;-19496.34;6237470;22;45277;-91
2022/12/01 13:56:07;;;;;;;;;24.33;20.33;;;;;10.59;66.62;-19495.16;6235221;22;45652;-90
2022/12/01 13:58:33;;;;;;;;;18.00;18.00;;;;;10.57;66.42;-19494.75;6238865;22;45545;-88
2022/12/01 14:01:23;;;;;;;;;20.33;17.33;;;;;10.50;66.50;-19492.97;6212964;22;45321;-92
2022/12/01 14:03:54;;;;;;;;;21.00;20.33;;;;;10.39;66.44;-19490.00;6212584;22;45361;-92
2022/12/01 14:06:49;;;;;;;;;20.67;20.67;;;;;8.90;66.74;-19450.59;6240148;22;45416;-92
2022/12/01 14:09:25;;;;;;;;;20.00;19.33;;;;;9.12;66.67;-19456.41;6239561;22;46474;-89
2022/12/01 14:11:59;;;;;;;;;22.67;20.00;;;;;10.42;66.53;-19490.81;6240637;22;45261;-91
2022/12/01 14:15:20;;;;;;;;;18.00;14.67;;;;;10.39;66.53;-19489.88;6214192;22;45377;-89
2022/12/01 14:17:47;;;;;;;;;22.33;18.00;;;;;10.23;66.48;-19485.69;6241747;22;45423;-91
2022/12/01 14:20:12;;;;;;;;;19.00;16.00;;;;;10.38;66.77;-19489.75;6241264;22;45282;-89
2022/12/01 14:22:42;;;;;;;;;18.50;15.00;;;;;10.06;66.61;-19481.38;6241048;22;45572;-92
2022/12/01 14:25:20;;;;;;;;;18.00;15.00;;;;;10.33;66.96;-19488.53;6241445;22;45328;-91
2022/12/01 14:27:49;;;;;;;;;19.67;18.67;;;;;8.96;66.34;-19452.22;6242213;22;45554;-89
2022/12/01 14:30:45;;;;;;;;;21.00;18.33;;;;;10.33;66.98;-19488.41;6240508;22;45443;-92
2022/12/01 14:34:01;;;;;;;;;23.00;21.33;;;;;10.31;66.61;-19487.84;6240619;22;45499;-90
2022/12/01 14:36:35;;;;;;;;;18.67;16.67;;;;;10.29;66.77;-19487.44;6242437;22;45345;-92
2022/12/01 14:39:20;;;;;;;;;17.67;17.67;;;;;9.54;66.57;-19467.59;6243541;22;45399;-91